sensor_id;sensor_type;location;lat;lon;timestamp;temperature;humidity
31731;DHT22;18310;55.586;12.286;2022-09-17T00:02:03;14.30;69.60
31731;DHT22;18310;55.586;12.286;2022-09-17T00:05:09;14.30;69.60
31731;DHT22;18310;55.586;12.286;2022-09-17T00:08:13;14.20;69.70
31731;DHT22;18310;55.586;12.286;2022-09-17T00:11:18;14.20;69.80
31731;DHT22;18310;55.586;12.286;2022-09-17T00:14:23;14.10;69.70
31731;DHT22;18310;55.586;12.286;2022-09-17T00:17:26;14.00;69.70
31731;DHT22;18310;55.586;12.286;2022-09-17T00:20:30;14.00;70.00
31731;DHT22;18310;55.586;12.286;2022-09-17T00:23:33;13.80;70.10
31731;DHT22;18310;55.586;12.286;2022-09-17T00:26:37;13.90;70.10
31731;DHT22;18310;55.586;12.286;2022-09-17T00:29:40;13.90;70.20
31731;DHT22;18310;55.586;12.286;2022-09-17T00:32:43;13.90;70.40
31731;DHT22;18310;55.586;12.286;2022-09-17T00:35:57;13.90;70.50
31731;DHT22;18310;55.586;12.286;2022-09-17T00:39:00;13.90;71.20
31731;DHT22;18310;55.586;12.286;2022-09-17T00:42:05;13.80;70.60
31731;DHT22;18310;55.586;12.286;2022-09-17T00:45:11;14.00;70.70
31731;DHT22;18310;55.586;12.286;2022-09-17T00:48:15;13.80;70.70
31731;DHT22;18310;55.586;12.286;2022-09-17T00:51:23;13.80;70.90
31731;DHT22;18310;55.586;12.286;2022-09-17T00:54:30;13.80;71.20
31731;DHT22;18310;55.586;12.286;2022-09-17T00:57:34;13.80;71.10
31731;DHT22;18310;55.586;12.286;2022-09-17T01:00:38;13.90;71.30
31731;DHT22;18310;55.586;12.286;2022-09-17T01:03:42;13.80;71.30
31731;DHT22;18310;55.586;12.286;2022-09-17T01:06:50;13.80;71.40
31731;DHT22;18310;55.586;12.286;2022-09-17T01:10:10;13.80;71.80
31731;DHT22;18310;55.586;12.286;2022-09-17T01:13:33;13.90;72.30
31731;DHT22;18310;55.586;12.286;2022-09-17T01:16:50;13.80;72.30
31731;DHT22;18310;55.586;12.286;2022-09-17T01:20:31;13.80;71.90
31731;DHT22;18310;55.586;12.286;2022-09-17T01:24:22;13.80;72.90
31731;DHT22;18310;55.586;12.286;2022-09-17T01:28:25;14.40;72.90
31731;DHT22;18310;55.586;12.286;2022-09-17T01:31:39;13.80;73.10
31731;DHT22;18310;55.586;12.286;2022-09-17T01:34:53;13.80;72.40
31731;DHT22;18310;55.586;12.286;2022-09-17T01:38:09;14.60;73.10
31731;DHT22;18310;55.586;12.286;2022-09-17T01:41:21;13.80;72.90
31731;DHT22;18310;55.586;12.286;2022-09-17T01:44:33;14.10;72.70
31731;DHT22;18310;55.586;12.286;2022-09-17T01:47:46;13.80;72.70
31731;DHT22;18310;55.586;12.286;2022-09-17T01:50:57;13.80;72.90
31731;DHT22;18310;55.586;12.286;2022-09-17T01:54:09;13.80;72.90
31731;DHT22;18310;55.586;12.286;2022-09-17T01:57:17;13.90;73.20
31731;DHT22;18310;55.586;12.286;2022-09-17T02:00:25;13.90;73.40
31731;DHT22;18310;55.586;12.286;2022-09-17T02:03:34;13.90;73.50
31731;DHT22;18310;55.586;12.286;2022-09-17T02:06:45;14.00;74.20
31731;DHT22;18310;55.586;12.286;2022-09-17T02:09:56;14.00;74.10
31731;DHT22;18310;55.586;12.286;2022-09-17T02:13:06;13.90;74.00
31731;DHT22;18310;55.586;12.286;2022-09-17T02:16:15;14.20;74.30
31731;DHT22;18310;55.586;12.286;2022-09-17T02:19:26;14.20;74.20
31731;DHT22;18310;55.586;12.286;2022-09-17T02:22:37;14.30;74.30
31731;DHT22;18310;55.586;12.286;2022-09-17T02:25:49;14.30;74.30
31731;DHT22;18310;55.586;12.286;2022-09-17T02:29:01;14.40;74.30
31731;DHT22;18310;55.586;12.286;2022-09-17T02:32:10;14.40;74.00
31731;DHT22;18310;55.586;12.286;2022-09-17T02:35:15;14.50;73.70
31731;DHT22;18310;55.586;12.286;2022-09-17T02:38:24;14.50;73.60
31731;DHT22;18310;55.586;12.286;2022-09-17T02:41:37;14.50;73.80
31731;DHT22;18310;55.586;12.286;2022-09-17T02:44:56;14.50;73.90
31731;DHT22;18310;55.586;12.286;2022-09-17T02:48:19;13.60;73.20
31731;DHT22;18310;55.586;12.286;2022-09-17T02:51:38;14.40;74.10
31731;DHT22;18310;55.586;12.286;2022-09-17T02:54:58;14.40;73.70
31731;DHT22;18310;55.586;12.286;2022-09-17T02:58:13;14.40;73.70
31731;DHT22;18310;55.586;12.286;2022-09-17T03:01:29;14.40;73.90
31731;DHT22;18310;55.586;12.286;2022-09-17T03:04:40;14.40;73.60
31731;DHT22;18310;55.586;12.286;2022-09-17T03:07:45;14.30;73.50
31731;DHT22;18310;55.586;12.286;2022-09-17T03:10:49;14.30;73.50
31731;DHT22;18310;55.586;12.286;2022-09-17T03:13:52;14.00;73.30
31731;DHT22;18310;55.586;12.286;2022-09-17T03:16:55;14.40;73.50
31731;DHT22;18310;55.586;12.286;2022-09-17T03:19:59;14.20;73.50
31731;DHT22;18310;55.586;12.286;2022-09-17T03:23:04;14.20;73.50
31731;DHT22;18310;55.586;12.286;2022-09-17T03:26:07;14.20;73.70
31731;DHT22;18310;55.586;12.286;2022-09-17T03:29:10;14.20;73.60
31731;DHT22;18310;55.586;12.286;2022-09-17T03:32:14;14.20;73.70
31731;DHT22;18310;55.586;12.286;2022-09-17T03:35:17;14.10;73.90
31731;DHT22;18310;55.586;12.286;2022-09-17T03:38:22;14.10;74.00
31731;DHT22;18310;55.586;12.286;2022-09-17T03:41:25;14.10;74.30
31731;DHT22;18310;55.586;12.286;2022-09-17T03:44:29;14.10;74.20
31731;DHT22;18310;55.586;12.286;2022-09-17T03:47:32;13.90;74.10
31731;DHT22;18310;55.586;12.286;2022-09-17T03:50:35;14.10;74.30
31731;DHT22;18310;55.586;12.286;2022-09-17T03:53:39;14.10;74.30
31731;DHT22;18310;55.586;12.286;2022-09-17T03:56:43;14.10;74.50
31731;DHT22;18310;55.586;12.286;2022-09-17T03:59:47;14.10;74.40
31731;DHT22;18310;55.586;12.286;2022-09-17T04:02:50;14.00;74.40
31731;DHT22;18310;55.586;12.286;2022-09-17T04:05:53;14.00;74.40
31731;DHT22;18310;55.586;12.286;2022-09-17T04:08:58;14.00;74.60
31731;DHT22;18310;55.586;12.286;2022-09-17T04:12:02;14.00;74.70
31731;DHT22;18310;55.586;12.286;2022-09-17T04:15:06;14.10;74.70
31731;DHT22;18310;55.586;12.286;2022-09-17T04:18:10;14.00;74.80
31731;DHT22;18310;55.586;12.286;2022-09-17T04:21:13;14.10;75.40
31731;DHT22;18310;55.586;12.286;2022-09-17T04:24:18;14.00;75.00
31731;DHT22;18310;55.586;12.286;2022-09-17T04:27:21;14.00;75.10
31731;DHT22;18310;55.586;12.286;2022-09-17T04:30:24;14.00;75.10
31731;DHT22;18310;55.586;12.286;2022-09-17T04:33:27;14.00;75.30
31731;DHT22;18310;55.586;12.286;2022-09-17T04:36:30;14.10;75.50
31731;DHT22;18310;55.586;12.286;2022-09-17T04:39:35;14.00;75.70
31731;DHT22;18310;55.586;12.286;2022-09-17T04:42:38;14.00;76.00
31731;DHT22;18310;55.586;12.286;2022-09-17T04:45:45;14.10;76.00
31731;DHT22;18310;55.586;12.286;2022-09-17T04:48:49;14.20;76.20
31731;DHT22;18310;55.586;12.286;2022-09-17T04:51:52;14.20;76.50
31731;DHT22;18310;55.586;12.286;2022-09-17T04:54:56;14.30;76.60
31731;DHT22;18310;55.586;12.286;2022-09-17T04:57:59;14.30;76.70
31731;DHT22;18310;55.586;12.286;2022-09-17T05:01:03;14.40;76.50
31731;DHT22;18310;55.586;12.286;2022-09-17T05:04:06;14.50;76.40
31731;DHT22;18310;55.586;12.286;2022-09-17T05:07:10;14.50;76.20
31731;DHT22;18310;55.586;12.286;2022-09-17T05:10:17;14.60;76.30
31731;DHT22;18310;55.586;12.286;2022-09-17T05:13:21;15.80;77.30
31731;DHT22;18310;55.586;12.286;2022-09-17T05:16:24;14.80;76.50
31731;DHT22;18310;55.586;12.286;2022-09-17T05:19:28;14.90;76.70
31731;DHT22;18310;55.586;12.286;2022-09-17T05:22:31;14.90;76.70
31731;DHT22;18310;55.586;12.286;2022-09-17T05:25:35;15.00;76.80
31731;DHT22;18310;55.586;12.286;2022-09-17T05:28:39;15.10;76.60
31731;DHT22;18310;55.586;12.286;2022-09-17T05:31:41;15.20;76.40
31731;DHT22;18310;55.586;12.286;2022-09-17T05:34:45;15.30;76.30
31731;DHT22;18310;55.586;12.286;2022-09-17T05:37:48;15.40;76.20
31731;DHT22;18310;55.586;12.286;2022-09-17T05:40:53;15.40;75.70
31731;DHT22;18310;55.586;12.286;2022-09-17T05:43:56;15.50;75.40
31731;DHT22;18310;55.586;12.286;2022-09-17T05:46:59;15.60;75.10
31731;DHT22;18310;55.586;12.286;2022-09-17T05:50:02;15.60;74.70
31731;DHT22;18310;55.586;12.286;2022-09-17T05:53:07;15.60;74.60
31731;DHT22;18310;55.586;12.286;2022-09-17T05:56:14;15.70;74.50
31731;DHT22;18310;55.586;12.286;2022-09-17T05:59:17;15.60;74.40
31731;DHT22;18310;55.586;12.286;2022-09-17T06:02:20;15.70;74.40
31731;DHT22;18310;55.586;12.286;2022-09-17T06:05:25;15.10;74.00
31731;DHT22;18310;55.586;12.286;2022-09-17T06:08:28;15.60;74.30
31731;DHT22;18310;55.586;12.286;2022-09-17T06:11:32;15.70;74.40
31731;DHT22;18310;55.586;12.286;2022-09-17T06:14:35;15.70;74.40
31731;DHT22;18310;55.586;12.286;2022-09-17T06:17:39;15.80;74.40
31731;DHT22;18310;55.586;12.286;2022-09-17T06:20:52;15.70;74.30
31731;DHT22;18310;55.586;12.286;2022-09-17T06:23:56;15.70;74.80
31731;DHT22;18310;55.586;12.286;2022-09-17T06:27:00;15.70;74.40
31731;DHT22;18310;55.586;12.286;2022-09-17T06:30:05;15.70;74.40
31731;DHT22;18310;55.586;12.286;2022-09-17T06:33:09;15.70;74.40
31731;DHT22;18310;55.586;12.286;2022-09-17T06:36:12;15.60;74.30
31731;DHT22;18310;55.586;12.286;2022-09-17T06:39:15;15.60;74.50
31731;DHT22;18310;55.586;12.286;2022-09-17T06:42:20;15.60;74.60
31731;DHT22;18310;55.586;12.286;2022-09-17T06:45:23;15.60;75.20
31731;DHT22;18310;55.586;12.286;2022-09-17T06:48:28;15.70;75.60
31731;DHT22;18310;55.586;12.286;2022-09-17T06:51:31;16.50;76.20
31731;DHT22;18310;55.586;12.286;2022-09-17T06:54:34;16.00;76.90
31731;DHT22;18310;55.586;12.286;2022-09-17T06:57:39;16.30;78.00
31731;DHT22;18310;55.586;12.286;2022-09-17T07:00:42;16.70;78.50
31731;DHT22;18310;55.586;12.286;2022-09-17T07:03:45;18.00;79.00
31731;DHT22;18310;55.586;12.286;2022-09-17T07:06:50;17.70;78.00
31731;DHT22;18310;55.586;12.286;2022-09-17T07:09:53;18.30;77.20
31731;DHT22;18310;55.586;12.286;2022-09-17T07:12:57;18.80;76.40
31731;DHT22;18310;55.586;12.286;2022-09-17T07:16:02;19.20;75.30
31731;DHT22;18310;55.586;12.286;2022-09-17T07:19:07;19.60;74.30
31731;DHT22;18310;55.586;12.286;2022-09-17T07:22:11;19.90;72.70
31731;DHT22;18310;55.586;12.286;2022-09-17T07:25:15;20.10;71.50
31731;DHT22;18310;55.586;12.286;2022-09-17T07:28:20;20.20;70.50
31731;DHT22;18310;55.586;12.286;2022-09-17T07:31:23;20.20;69.50
31731;DHT22;18310;55.586;12.286;2022-09-17T07:34:26;20.20;69.10
31731;DHT22;18310;55.586;12.286;2022-09-17T07:37:29;20.00;68.70
31731;DHT22;18310;55.586;12.286;2022-09-17T07:40:32;20.10;68.10
31731;DHT22;18310;55.586;12.286;2022-09-17T07:43:37;19.90;68.00
31731;DHT22;18310;55.586;12.286;2022-09-17T07:46:41;19.60;67.70
31731;DHT22;18310;55.586;12.286;2022-09-17T07:49:44;19.80;68.10
31731;DHT22;18310;55.586;12.286;2022-09-17T07:52:47;19.70;67.90
31731;DHT22;18310;55.586;12.286;2022-09-17T07:55:51;19.70;67.60
31731;DHT22;18310;55.586;12.286;2022-09-17T07:58:56;19.70;67.00
31731;DHT22;18310;55.586;12.286;2022-09-17T08:01:59;19.60;66.80
31731;DHT22;18310;55.586;12.286;2022-09-17T08:05:03;19.60;66.90
31731;DHT22;18310;55.586;12.286;2022-09-17T08:08:07;19.60;66.50
31731;DHT22;18310;55.586;12.286;2022-09-17T08:11:11;19.60;66.10
31731;DHT22;18310;55.586;12.286;2022-09-17T08:14:25;19.60;66.00
31731;DHT22;18310;55.586;12.286;2022-09-17T08:17:30;19.70;66.20
31731;DHT22;18310;55.586;12.286;2022-09-17T08:20:33;19.70;66.40
31731;DHT22;18310;55.586;12.286;2022-09-17T08:23:39;19.80;66.00
31731;DHT22;18310;55.586;12.286;2022-09-17T08:26:43;20.20;63.50
31731;DHT22;18310;55.586;12.286;2022-09-17T08:29:47;19.90;62.90
31731;DHT22;18310;55.586;12.286;2022-09-17T08:32:50;19.90;60.90
31731;DHT22;18310;55.586;12.286;2022-09-17T08:35:57;19.90;59.60
31731;DHT22;18310;55.586;12.286;2022-09-17T08:39:01;19.90;59.70
31731;DHT22;18310;55.586;12.286;2022-09-17T08:42:08;19.90;58.10
31731;DHT22;18310;55.586;12.286;2022-09-17T08:45:21;19.90;58.30
31731;DHT22;18310;55.586;12.286;2022-09-17T08:48:27;19.80;58.70
31731;DHT22;18310;55.586;12.286;2022-09-17T08:51:45;19.70;58.70
31731;DHT22;18310;55.586;12.286;2022-09-17T08:54:59;19.70;57.80
31731;DHT22;18310;55.586;12.286;2022-09-17T08:58:32;19.70;57.60
31731;DHT22;18310;55.586;12.286;2022-09-17T09:01:51;19.70;57.00
31731;DHT22;18310;55.586;12.286;2022-09-17T09:05:08;19.80;57.80
31731;DHT22;18310;55.586;12.286;2022-09-17T09:08:18;19.20;56.90
31731;DHT22;18310;55.586;12.286;2022-09-17T09:11:28;19.80;57.00
31731;DHT22;18310;55.586;12.286;2022-09-17T09:14:47;19.80;57.70
31731;DHT22;18310;55.586;12.286;2022-09-17T09:18:02;19.90;56.70
31731;DHT22;18310;55.586;12.286;2022-09-17T09:21:24;19.90;56.00
31731;DHT22;18310;55.586;12.286;2022-09-17T09:24:39;19.90;55.40
31731;DHT22;18310;55.586;12.286;2022-09-17T09:27:47;20.10;55.30
31731;DHT22;18310;55.586;12.286;2022-09-17T09:31:14;20.10;55.40
31731;DHT22;18310;55.586;12.286;2022-09-17T09:34:27;20.20;54.40
31731;DHT22;18310;55.586;12.286;2022-09-17T09:37:35;20.20;54.40
31731;DHT22;18310;55.586;12.286;2022-09-17T09:40:47;20.20;53.90
31731;DHT22;18310;55.586;12.286;2022-09-17T09:44:00;20.30;53.60
31731;DHT22;18310;55.586;12.286;2022-09-17T09:47:17;20.30;53.70
31731;DHT22;18310;55.586;12.286;2022-09-17T09:50:40;20.40;53.80
31731;DHT22;18310;55.586;12.286;2022-09-17T09:54:17;20.40;53.20
31731;DHT22;18310;55.586;12.286;2022-09-17T09:57:37;20.40;52.80
31731;DHT22;18310;55.586;12.286;2022-09-17T10:00:44;20.90;52.60
31731;DHT22;18310;55.586;12.286;2022-09-17T10:03:51;20.50;52.70
31731;DHT22;18310;55.586;12.286;2022-09-17T10:07:04;20.60;52.10
31731;DHT22;18310;55.586;12.286;2022-09-17T10:10:09;20.50;51.30
31731;DHT22;18310;55.586;12.286;2022-09-17T10:13:12;20.60;52.20
31731;DHT22;18310;55.586;12.286;2022-09-17T10:16:19;20.60;52.00
31731;DHT22;18310;55.586;12.286;2022-09-17T10:19:25;20.60;52.60
31731;DHT22;18310;55.586;12.286;2022-09-17T10:22:31;20.60;52.10
31731;DHT22;18310;55.586;12.286;2022-09-17T10:25:41;20.50;51.90
31731;DHT22;18310;55.586;12.286;2022-09-17T10:28:50;20.50;52.00
31731;DHT22;18310;55.586;12.286;2022-09-17T10:31:56;20.60;52.10
31731;DHT22;18310;55.586;12.286;2022-09-17T10:35:03;21.00;52.40
31731;DHT22;18310;55.586;12.286;2022-09-17T10:38:26;20.70;51.30
31731;DHT22;18310;55.586;12.286;2022-09-17T10:41:31;21.00;50.50
31731;DHT22;18310;55.586;12.286;2022-09-17T10:44:35;20.90;51.40
31731;DHT22;18310;55.586;12.286;2022-09-17T10:47:40;21.00;50.60
31731;DHT22;18310;55.586;12.286;2022-09-17T10:50:47;21.00;50.80
31731;DHT22;18310;55.586;12.286;2022-09-17T10:54:03;21.00;50.00
31731;DHT22;18310;55.586;12.286;2022-09-17T10:57:24;21.00;49.40
31731;DHT22;18310;55.586;12.286;2022-09-17T11:00:41;20.90;49.90
31731;DHT22;18310;55.586;12.286;2022-09-17T11:04:11;20.90;50.00
31731;DHT22;18310;55.586;12.286;2022-09-17T11:07:36;20.60;49.40
31731;DHT22;18310;55.586;12.286;2022-09-17T11:10:52;20.70;49.20
31731;DHT22;18310;55.586;12.286;2022-09-17T11:14:15;21.20;49.80
31731;DHT22;18310;55.586;12.286;2022-09-17T11:17:39;20.60;50.50
31731;DHT22;18310;55.586;12.286;2022-09-17T11:21:17;20.50;50.10
31731;DHT22;18310;55.586;12.286;2022-09-17T11:24:59;20.60;49.80
31731;DHT22;18310;55.586;12.286;2022-09-17T11:28:31;20.40;50.00
31731;DHT22;18310;55.586;12.286;2022-09-17T11:31:49;20.40;50.60
31731;DHT22;18310;55.586;12.286;2022-09-17T11:35:03;20.30;50.80
31731;DHT22;18310;55.586;12.286;2022-09-17T11:38:15;20.20;50.90
31731;DHT22;18310;55.586;12.286;2022-09-17T11:41:29;20.30;50.60
31731;DHT22;18310;55.586;12.286;2022-09-17T11:44:40;20.30;50.30
31731;DHT22;18310;55.586;12.286;2022-09-17T11:47:54;20.30;50.20
31731;DHT22;18310;55.586;12.286;2022-09-17T11:51:10;20.20;50.50
31731;DHT22;18310;55.586;12.286;2022-09-17T11:54:24;20.30;50.10
31731;DHT22;18310;55.586;12.286;2022-09-17T11:57:35;20.20;50.30
31731;DHT22;18310;55.586;12.286;2022-09-17T12:00:48;20.20;50.70
31731;DHT22;18310;55.586;12.286;2022-09-17T12:03:58;20.20;50.40
31731;DHT22;18310;55.586;12.286;2022-09-17T12:07:14;20.20;51.30
31731;DHT22;18310;55.586;12.286;2022-09-17T12:10:36;20.20;50.50
31731;DHT22;18310;55.586;12.286;2022-09-17T12:13:48;20.20;49.70
31731;DHT22;18310;55.586;12.286;2022-09-17T12:16:57;20.00;49.80
31731;DHT22;18310;55.586;12.286;2022-09-17T12:20:06;20.00;49.70
31731;DHT22;18310;55.586;12.286;2022-09-17T12:23:29;19.90;49.30
31731;DHT22;18310;55.586;12.286;2022-09-17T12:27:02;19.80;49.40
31731;DHT22;18310;55.586;12.286;2022-09-17T12:30:12;19.80;49.40
31731;DHT22;18310;55.586;12.286;2022-09-17T12:33:26;19.70;50.30
31731;DHT22;18310;55.586;12.286;2022-09-17T12:36:41;19.00;49.40
31731;DHT22;18310;55.586;12.286;2022-09-17T12:40:06;19.80;49.40
31731;DHT22;18310;55.586;12.286;2022-09-17T12:43:43;19.80;49.60
31731;DHT22;18310;55.586;12.286;2022-09-17T12:47:09;19.80;49.20
31731;DHT22;18310;55.586;12.286;2022-09-17T12:50:35;19.80;49.60
31731;DHT22;18310;55.586;12.286;2022-09-17T12:53:55;20.70;49.60
31731;DHT22;18310;55.586;12.286;2022-09-17T12:57:13;20.70;49.50
31731;DHT22;18310;55.586;12.286;2022-09-17T13:00:26;19.50;49.20
31731;DHT22;18310;55.586;12.286;2022-09-17T13:03:31;19.80;50.10
31731;DHT22;18310;55.586;12.286;2022-09-17T13:07:01;20.00;50.30
31731;DHT22;18310;55.586;12.286;2022-09-17T13:14:00;20.00;49.70
31731;DHT22;18310;55.586;12.286;2022-09-17T13:17:17;20.00;49.40
31731;DHT22;18310;55.586;12.286;2022-09-17T13:20:28;20.10;49.30
31731;DHT22;18310;55.586;12.286;2022-09-17T13:23:38;20.10;49.40
31731;DHT22;18310;55.586;12.286;2022-09-17T13:26:44;20.10;49.00
31731;DHT22;18310;55.586;12.286;2022-09-17T13:30:01;20.10;49.30
31731;DHT22;18310;55.586;12.286;2022-09-17T13:33:04;20.10;48.70
31731;DHT22;18310;55.586;12.286;2022-09-17T13:36:34;21.00;49.90
31731;DHT22;18310;55.586;12.286;2022-09-17T13:39:43;20.00;48.60
31731;DHT22;18310;55.586;12.286;2022-09-17T13:42:51;19.30;48.70
31731;DHT22;18310;55.586;12.286;2022-09-17T13:46:08;20.00;49.50
31731;DHT22;18310;55.586;12.286;2022-09-17T13:49:18;19.90;49.10
31731;DHT22;18310;55.586;12.286;2022-09-17T13:52:34;19.90;49.60
31731;DHT22;18310;55.586;12.286;2022-09-17T13:55:43;19.90;49.30
31731;DHT22;18310;55.586;12.286;2022-09-17T13:58:49;20.40;50.10
31731;DHT22;18310;55.586;12.286;2022-09-17T14:01:59;19.90;49.70
31731;DHT22;18310;55.586;12.286;2022-09-17T14:05:27;20.00;49.90
31731;DHT22;18310;55.586;12.286;2022-09-17T14:08:46;20.10;48.90
31731;DHT22;18310;55.586;12.286;2022-09-17T14:11:53;20.20;48.90
31731;DHT22;18310;55.586;12.286;2022-09-17T14:14:56;20.40;49.60
31731;DHT22;18310;55.586;12.286;2022-09-17T14:17:59;20.40;49.60
31731;DHT22;18310;55.586;12.286;2022-09-17T14:21:13;20.50;49.20
31731;DHT22;18310;55.586;12.286;2022-09-17T14:24:30;20.00;48.20
31731;DHT22;18310;55.586;12.286;2022-09-17T14:27:49;20.60;48.80
31731;DHT22;18310;55.586;12.286;2022-09-17T14:30:57;20.90;48.40
31731;DHT22;18310;55.586;12.286;2022-09-17T14:34:04;20.70;48.90
31731;DHT22;18310;55.586;12.286;2022-09-17T14:37:13;20.70;48.20
31731;DHT22;18310;55.586;12.286;2022-09-17T14:40:21;20.70;47.80
31731;DHT22;18310;55.586;12.286;2022-09-17T14:43:41;20.50;47.80
31731;DHT22;18310;55.586;12.286;2022-09-17T14:46:53;20.60;46.60
31731;DHT22;18310;55.586;12.286;2022-09-17T14:50:21;20.60;47.70
31731;DHT22;18310;55.586;12.286;2022-09-17T14:53:26;20.60;47.40
31731;DHT22;18310;55.586;12.286;2022-09-17T14:56:29;20.60;47.90
31731;DHT22;18310;55.586;12.286;2022-09-17T14:59:46;20.60;47.60
31731;DHT22;18310;55.586;12.286;2022-09-17T15:02:53;20.70;46.90
31731;DHT22;18310;55.586;12.286;2022-09-17T15:06:00;20.60;47.10
31731;DHT22;18310;55.586;12.286;2022-09-17T15:09:03;20.60;47.20
31731;DHT22;18310;55.586;12.286;2022-09-17T15:12:06;20.60;47.20
31731;DHT22;18310;55.586;12.286;2022-09-17T15:15:17;20.30;47.20
31731;DHT22;18310;55.586;12.286;2022-09-17T15:18:31;19.60;46.80
31731;DHT22;18310;55.586;12.286;2022-09-17T15:21:38;20.40;47.20
31731;DHT22;18310;55.586;12.286;2022-09-17T15:24:48;20.30;47.30
31731;DHT22;18310;55.586;12.286;2022-09-17T15:27:57;20.20;46.80
31731;DHT22;18310;55.586;12.286;2022-09-17T15:31:15;20.10;47.30
31731;DHT22;18310;55.586;12.286;2022-09-17T15:34:20;20.00;46.80
31731;DHT22;18310;55.586;12.286;2022-09-17T15:37:25;19.30;47.10
31731;DHT22;18310;55.586;12.286;2022-09-17T15:40:30;19.90;47.80
31731;DHT22;18310;55.586;12.286;2022-09-17T15:43:38;19.90;47.70
31731;DHT22;18310;55.586;12.286;2022-09-17T15:46:43;19.80;48.00
31731;DHT22;18310;55.586;12.286;2022-09-17T15:50:14;19.70;47.90
31731;DHT22;18310;55.586;12.286;2022-09-17T15:53:22;19.70;48.10
31731;DHT22;18310;55.586;12.286;2022-09-17T15:56:28;19.60;48.20
31731;DHT22;18310;55.586;12.286;2022-09-17T15:59:34;19.50;48.10
31731;DHT22;18310;55.586;12.286;2022-09-17T16:02:38;19.40;48.10
31731;DHT22;18310;55.586;12.286;2022-09-17T16:05:44;19.50;47.90
31731;DHT22;18310;55.586;12.286;2022-09-17T16:08:49;19.40;47.80
31731;DHT22;18310;55.586;12.286;2022-09-17T16:11:54;19.30;47.90
31731;DHT22;18310;55.586;12.286;2022-09-17T16:14:59;19.20;48.10
31731;DHT22;18310;55.586;12.286;2022-09-17T16:18:04;18.70;47.90
31731;DHT22;18310;55.586;12.286;2022-09-17T16:21:09;19.10;48.40
31731;DHT22;18310;55.586;12.286;2022-09-17T16:24:12;19.00;48.40
31731;DHT22;18310;55.586;12.286;2022-09-17T16:27:18;19.00;48.60
31731;DHT22;18310;55.586;12.286;2022-09-17T16:30:24;18.90;48.70
31731;DHT22;18310;55.586;12.286;2022-09-17T16:33:29;18.90;48.80
31731;DHT22;18310;55.586;12.286;2022-09-17T16:36:32;18.80;49.10
31731;DHT22;18310;55.586;12.286;2022-09-17T16:39:35;18.80;49.30
31731;DHT22;18310;55.586;12.286;2022-09-17T16:42:38;18.70;49.50
31731;DHT22;18310;55.586;12.286;2022-09-17T16:45:41;18.80;49.90
31731;DHT22;18310;55.586;12.286;2022-09-17T16:48:49;18.60;49.90
31731;DHT22;18310;55.586;12.286;2022-09-17T16:51:52;18.50;50.10
31731;DHT22;18310;55.586;12.286;2022-09-17T16:54:55;18.50;50.30
31731;DHT22;18310;55.586;12.286;2022-09-17T16:57:58;18.40;50.40
31731;DHT22;18310;55.586;12.286;2022-09-17T17:01:05;18.30;50.50
31731;DHT22;18310;55.586;12.286;2022-09-17T17:04:10;18.20;50.90
31731;DHT22;18310;55.586;12.286;2022-09-17T17:07:14;18.40;51.10
31731;DHT22;18310;55.586;12.286;2022-09-17T17:10:17;18.00;51.20
31731;DHT22;18310;55.586;12.286;2022-09-17T17:13:22;18.00;51.40
31731;DHT22;18310;55.586;12.286;2022-09-17T17:16:25;18.00;51.80
31731;DHT22;18310;55.586;12.286;2022-09-17T17:19:30;17.90;51.80
31731;DHT22;18310;55.586;12.286;2022-09-17T17:22:35;17.70;52.10
31731;DHT22;18310;55.586;12.286;2022-09-17T17:25:39;17.70;52.30
31731;DHT22;18310;55.586;12.286;2022-09-17T17:28:42;17.30;52.40
31731;DHT22;18310;55.586;12.286;2022-09-17T17:31:46;17.60;53.00
31731;DHT22;18310;55.586;12.286;2022-09-17T17:34:51;17.40;53.20
31731;DHT22;18310;55.586;12.286;2022-09-17T17:37:54;17.60;53.70
31731;DHT22;18310;55.586;12.286;2022-09-17T17:41:02;17.30;53.60
31731;DHT22;18310;55.586;12.286;2022-09-17T17:44:08;17.30;54.00
31731;DHT22;18310;55.586;12.286;2022-09-17T17:47:13;17.20;54.00
31731;DHT22;18310;55.586;12.286;2022-09-17T17:50:17;17.10;54.00
31731;DHT22;18310;55.586;12.286;2022-09-17T17:53:21;17.10;54.20
31731;DHT22;18310;55.586;12.286;2022-09-17T17:56:24;17.00;54.50
31731;DHT22;18310;55.586;12.286;2022-09-17T17:59:27;16.90;54.60
31731;DHT22;18310;55.586;12.286;2022-09-17T18:02:30;16.80;54.60
31731;DHT22;18310;55.586;12.286;2022-09-17T18:05:38;16.70;54.90
31731;DHT22;18310;55.586;12.286;2022-09-17T18:08:42;16.70;55.20
31731;DHT22;18310;55.586;12.286;2022-09-17T18:11:45;16.60;55.10
31731;DHT22;18310;55.586;12.286;2022-09-17T18:14:49;16.60;55.10
31731;DHT22;18310;55.586;12.286;2022-09-17T18:17:52;16.50;55.20
31731;DHT22;18310;55.586;12.286;2022-09-17T18:20:59;16.60;55.50
31731;DHT22;18310;55.586;12.286;2022-09-17T18:24:03;16.30;55.90
31731;DHT22;18310;55.586;12.286;2022-09-17T18:27:06;16.20;55.70
31731;DHT22;18310;55.586;12.286;2022-09-17T18:30:10;16.10;55.90
31731;DHT22;18310;55.586;12.286;2022-09-17T18:33:18;16.00;56.20
31731;DHT22;18310;55.586;12.286;2022-09-17T18:36:27;15.90;56.70
31731;DHT22;18310;55.586;12.286;2022-09-17T18:39:31;16.30;57.20
31731;DHT22;18310;55.586;12.286;2022-09-17T18:42:54;16.10;57.00
31731;DHT22;18310;55.586;12.286;2022-09-17T18:45:57;15.60;56.90
31731;DHT22;18310;55.586;12.286;2022-09-17T18:49:02;15.60;57.10
31731;DHT22;18310;55.586;12.286;2022-09-17T18:52:07;15.50;57.20
31731;DHT22;18310;55.586;12.286;2022-09-17T18:55:10;15.40;57.50
31731;DHT22;18310;55.586;12.286;2022-09-17T18:58:12;15.40;57.60
31731;DHT22;18310;55.586;12.286;2022-09-17T19:01:16;15.10;57.60
31731;DHT22;18310;55.586;12.286;2022-09-17T19:04:20;15.30;58.10
31731;DHT22;18310;55.586;12.286;2022-09-17T19:07:25;15.20;58.20
31731;DHT22;18310;55.586;12.286;2022-09-17T19:10:29;15.20;58.60
31731;DHT22;18310;55.586;12.286;2022-09-17T19:13:34;15.20;58.70
31731;DHT22;18310;55.586;12.286;2022-09-17T19:16:38;15.20;58.70
31731;DHT22;18310;55.586;12.286;2022-09-17T19:19:42;15.20;58.80
31731;DHT22;18310;55.586;12.286;2022-09-17T19:22:48;15.20;59.00
31731;DHT22;18310;55.586;12.286;2022-09-17T19:25:52;15.10;59.30
31731;DHT22;18310;55.586;12.286;2022-09-17T19:28:57;15.10;59.20
31731;DHT22;18310;55.586;12.286;2022-09-17T19:32:01;15.10;59.50
31731;DHT22;18310;55.586;12.286;2022-09-17T19:35:05;15.00;59.60
31731;DHT22;18310;55.586;12.286;2022-09-17T19:38:11;15.00;59.80